sensor_id;sensor_type;location;lat;lon;timestamp;temperature;humidity
11474;DHT22;5793;52.238;13.438;2023-02-03T00:00:40;1.00;99.90
11474;DHT22;5793;52.238;13.438;2023-02-03T00:03:08;1.10;99.90
11474;DHT22;5793;52.238;13.438;2023-02-03T00:05:36;1.10;99.90
11474;DHT22;5793;52.238;13.438;2023-02-03T00:08:04;1.10;99.90
11474;DHT22;5793;52.238;13.438;2023-02-03T00:10:34;1.10;99.90
11474;DHT22;5793;52.238;13.438;2023-02-03T00:13:04;1.10;99.90
11474;DHT22;5793;52.238;13.438;2023-02-03T00:15:32;1.10;99.90
11474;DHT22;5793;52.238;13.438;2023-02-03T00:18:00;1.10;99.90
11474;DHT22;5793;52.238;13.438;2023-02-03T00:20:28;1.10;99.90
11474;DHT22;5793;52.238;13.438;2023-02-03T00:23:02;1.20;99.90
11474;DHT22;5793;52.238;13.438;2023-02-03T00:25:30;1.20;99.90
11474;DHT22;5793;52.238;13.438;2023-02-03T00:27:58;1.30;99.90
11474;DHT22;5793;52.238;13.438;2023-02-03T00:30:27;1.30;99.90
11474;DHT22;5793;52.238;13.438;2023-02-03T00:32:55;1.40;99.90
11474;DHT22;5793;52.238;13.438;2023-02-03T00:35:23;1.50;99.90
11474;DHT22;5793;52.238;13.438;2023-02-03T00:37:51;1.50;99.90
11474;DHT22;5793;52.238;13.438;2023-02-03T00:40:20;1.60;99.90
11474;DHT22;5793;52.238;13.438;2023-02-03T00:42:48;1.70;99.90
11474;DHT22;5793;52.238;13.438;2023-02-03T00:45:16;1.70;99.90
11474;DHT22;5793;52.238;13.438;2023-02-03T00:47:47;1.70;99.90
11474;DHT22;5793;52.238;13.438;2023-02-03T00:50:15;1.80;99.90
11474;DHT22;5793;52.238;13.438;2023-02-03T00:52:43;1.80;99.90
11474;DHT22;5793;52.238;13.438;2023-02-03T00:55:11;1.80;99.90
11474;DHT22;5793;52.238;13.438;2023-02-03T00:57:39;1.90;99.90
11474;DHT22;5793;52.238;13.438;2023-02-03T01:00:08;1.90;99.90
11474;DHT22;5793;52.238;13.438;2023-02-03T01:02:36;2.00;99.90
11474;DHT22;5793;52.238;13.438;2023-02-03T01:05:06;2.00;99.90
11474;DHT22;5793;52.238;13.438;2023-02-03T01:07:34;2.00;99.90
11474;DHT22;5793;52.238;13.438;2023-02-03T01:10:02;2.10;99.90
11474;DHT22;5793;52.238;13.438;2023-02-03T01:12:31;2.10;99.90
11474;DHT22;5793;52.238;13.438;2023-02-03T01:14:59;2.10;99.90
11474;DHT22;5793;52.238;13.438;2023-02-03T01:17:26;2.10;99.90
11474;DHT22;5793;52.238;13.438;2023-02-03T01:19:54;2.20;99.90
11474;DHT22;5793;52.238;13.438;2023-02-03T01:22:23;2.10;99.90
11474;DHT22;5793;52.238;13.438;2023-02-03T01:24:51;2.20;99.90
11474;DHT22;5793;52.238;13.438;2023-02-03T01:27:19;2.20;99.90
11474;DHT22;5793;52.238;13.438;2023-02-03T01:29:47;2.30;99.90
11474;DHT22;5793;52.238;13.438;2023-02-03T01:32:15;2.30;99.90
11474;DHT22;5793;52.238;13.438;2023-02-03T01:34:43;2.30;99.90
11474;DHT22;5793;52.238;13.438;2023-02-03T01:37:10;2.40;99.90
11474;DHT22;5793;52.238;13.438;2023-02-03T01:39:41;2.40;99.90
11474;DHT22;5793;52.238;13.438;2023-02-03T01:42:11;2.40;99.90
11474;DHT22;5793;52.238;13.438;2023-02-03T01:44:43;2.40;99.90
11474;DHT22;5793;52.238;13.438;2023-02-03T01:47:15;2.40;99.90
11474;DHT22;5793;52.238;13.438;2023-02-03T01:49:47;2.50;99.90
11474;DHT22;5793;52.238;13.438;2023-02-03T01:52:16;2.50;99.90
11474;DHT22;5793;52.238;13.438;2023-02-03T01:54:47;2.50;99.90
11474;DHT22;5793;52.238;13.438;2023-02-03T01:57:18;2.50;99.90
11474;DHT22;5793;52.238;13.438;2023-02-03T01:59:49;2.60;99.90
11474;DHT22;5793;52.238;13.438;2023-02-03T02:02:20;2.50;99.90
11474;DHT22;5793;52.238;13.438;2023-02-03T02:04:57;2.50;99.90
11474;DHT22;5793;52.238;13.438;2023-02-03T02:07:28;2.50;99.90
11474;DHT22;5793;52.238;13.438;2023-02-03T02:09:59;2.40;99.90
11474;DHT22;5793;52.238;13.438;2023-02-03T02:12:27;2.40;99.90
11474;DHT22;5793;52.238;13.438;2023-02-03T02:14:54;2.50;99.90
11474;DHT22;5793;52.238;13.438;2023-02-03T02:17:38;2.40;99.90
11474;DHT22;5793;52.238;13.438;2023-02-03T02:20:24;2.40;99.90
11474;DHT22;5793;52.238;13.438;2023-02-03T02:23:26;2.40;99.90
11474;DHT22;5793;52.238;13.438;2023-02-03T02:26:37;2.30;99.90
11474;DHT22;5793;52.238;13.438;2023-02-03T02:32:09;2.30;99.90
11474;DHT22;5793;52.238;13.438;2023-02-03T02:34:48;2.30;99.90
11474;DHT22;5793;52.238;13.438;2023-02-03T02:37:24;2.30;99.90
11474;DHT22;5793;52.238;13.438;2023-02-03T02:39:57;2.20;99.90
11474;DHT22;5793;52.238;13.438;2023-02-03T02:42:33;2.30;99.90
11474;DHT22;5793;52.238;13.438;2023-02-03T02:45:07;2.20;99.90
11474;DHT22;5793;52.238;13.438;2023-02-03T02:47:38;2.20;99.90
11474;DHT22;5793;52.238;13.438;2023-02-03T02:50:09;2.10;99.90
11474;DHT22;5793;52.238;13.438;2023-02-03T02:52:41;2.20;99.90
11474;DHT22;5793;52.238;13.438;2023-02-03T02:55:13;2.20;99.90
11474;DHT22;5793;52.238;13.438;2023-02-03T02:57:42;2.20;99.90
11474;DHT22;5793;52.238;13.438;2023-02-03T03:00:11;2.30;99.90
11474;DHT22;5793;52.238;13.438;2023-02-03T03:02:41;2.20;99.90
11474;DHT22;5793;52.238;13.438;2023-02-03T03:05:09;2.20;99.90
11474;DHT22;5793;52.238;13.438;2023-02-03T03:07:41;2.20;99.90
11474;DHT22;5793;52.238;13.438;2023-02-03T03:10:14;2.10;99.90
11474;DHT22;5793;52.238;13.438;2023-02-03T03:12:48;2.10;99.90
11474;DHT22;5793;52.238;13.438;2023-02-03T03:15:20;2.10;99.90
11474;DHT22;5793;52.238;13.438;2023-02-03T03:17:53;2.10;99.90
11474;DHT22;5793;52.238;13.438;2023-02-03T03:20:24;2.10;99.90
11474;DHT22;5793;52.238;13.438;2023-02-03T03:23:09;2.10;99.90
11474;DHT22;5793;52.238;13.438;2023-02-03T03:25:40;2.20;99.90
11474;DHT22;5793;52.238;13.438;2023-02-03T03:28:12;2.20;99.90
11474;DHT22;5793;52.238;13.438;2023-02-03T03:30:42;2.20;99.90
11474;DHT22;5793;52.238;13.438;2023-02-03T03:33:12;2.20;99.90
11474;DHT22;5793;52.238;13.438;2023-02-03T03:35:45;2.20;99.90
11474;DHT22;5793;52.238;13.438;2023-02-03T03:38:19;2.20;99.90
11474;DHT22;5793;52.238;13.438;2023-02-03T03:40:53;2.30;99.90
11474;DHT22;5793;52.238;13.438;2023-02-03T03:43:26;2.30;99.90
11474;DHT22;5793;52.238;13.438;2023-02-03T03:45:59;2.40;99.90
11474;DHT22;5793;52.238;13.438;2023-02-03T03:48:32;2.50;99.90
11474;DHT22;5793;52.238;13.438;2023-02-03T03:51:05;2.50;99.90
11474;DHT22;5793;52.238;13.438;2023-02-03T03:53:37;2.50;99.90
11474;DHT22;5793;52.238;13.438;2023-02-03T03:56:08;2.50;99.90
11474;DHT22;5793;52.238;13.438;2023-02-03T03:58:41;2.50;99.90
11474;DHT22;5793;52.238;13.438;2023-02-03T04:01:13;2.50;99.90
11474;DHT22;5793;52.238;13.438;2023-02-03T04:03:45;2.60;99.90
11474;DHT22;5793;52.238;13.438;2023-02-03T04:06:14;2.60;99.90
11474;DHT22;5793;52.238;13.438;2023-02-03T04:08:42;2.70;99.90
11474;DHT22;5793;52.238;13.438;2023-02-03T04:11:10;2.70;99.90
11474;DHT22;5793;52.238;13.438;2023-02-03T04:13:58;2.80;99.90
11474;DHT22;5793;52.238;13.438;2023-02-03T04:16:26;2.80;99.90
11474;DHT22;5793;52.238;13.438;2023-02-03T04:18:55;2.90;99.90
11474;DHT22;5793;52.238;13.438;2023-02-03T04:21:23;3.00;99.90
11474;DHT22;5793;52.238;13.438;2023-02-03T04:23:51;2.90;99.90
11474;DHT22;5793;52.238;13.438;2023-02-03T04:26:18;3.00;99.90
11474;DHT22;5793;52.238;13.438;2023-02-03T04:28:46;3.10;99.90
11474;DHT22;5793;52.238;13.438;2023-02-03T04:31:14;3.20;99.90
11474;DHT22;5793;52.238;13.438;2023-02-03T04:33:42;3.20;99.90
11474;DHT22;5793;52.238;13.438;2023-02-03T04:36:11;3.30;99.90
11474;DHT22;5793;52.238;13.438;2023-02-03T04:38:39;3.40;99.90
11474;DHT22;5793;52.238;13.438;2023-02-03T04:41:07;3.50;99.90
11474;DHT22;5793;52.238;13.438;2023-02-03T04:43:35;3.60;99.90
11474;DHT22;5793;52.238;13.438;2023-02-03T04:46:03;3.70;99.90
11474;DHT22;5793;52.238;13.438;2023-02-03T04:48:31;3.60;99.90
11474;DHT22;5793;52.238;13.438;2023-02-03T04:51:00;3.70;99.90
11474;DHT22;5793;52.238;13.438;2023-02-03T04:53:29;3.70;99.90
11474;DHT22;5793;52.238;13.438;2023-02-03T04:55:57;3.80;99.90
11474;DHT22;5793;52.238;13.438;2023-02-03T04:58:25;3.80;99.90
11474;DHT22;5793;52.238;13.438;2023-02-03T05:00:53;3.80;99.90
11474;DHT22;5793;52.238;13.438;2023-02-03T05:03:21;3.90;99.90
11474;DHT22;5793;52.238;13.438;2023-02-03T05:05:51;4.00;99.90
11474;DHT22;5793;52.238;13.438;2023-02-03T05:08:22;4.00;99.90
11474;DHT22;5793;52.238;13.438;2023-02-03T05:10:51;4.00;99.90
11474;DHT22;5793;52.238;13.438;2023-02-03T05:13:19;4.00;99.90
11474;DHT22;5793;52.238;13.438;2023-02-03T05:15:47;4.10;99.90
11474;DHT22;5793;52.238;13.438;2023-02-03T05:18:18;4.10;99.90
11474;DHT22;5793;52.238;13.438;2023-02-03T05:20:46;4.10;99.90
11474;DHT22;5793;52.238;13.438;2023-02-03T05:23:14;4.10;99.90
11474;DHT22;5793;52.238;13.438;2023-02-03T05:25:42;4.20;99.90
11474;DHT22;5793;52.238;13.438;2023-02-03T05:28:12;4.20;99.90
11474;DHT22;5793;52.238;13.438;2023-02-03T05:30:40;4.30;99.90
11474;DHT22;5793;52.238;13.438;2023-02-03T05:33:08;4.40;99.90
11474;DHT22;5793;52.238;13.438;2023-02-03T05:35:36;4.50;99.90
11474;DHT22;5793;52.238;13.438;2023-02-03T05:38:04;4.50;99.90
11474;DHT22;5793;52.238;13.438;2023-02-03T05:40:32;4.60;99.90
11474;DHT22;5793;52.238;13.438;2023-02-03T05:43:23;4.70;99.90
11474;DHT22;5793;52.238;13.438;2023-02-03T05:45:51;4.80;99.90
11474;DHT22;5793;52.238;13.438;2023-02-03T05:48:19;4.80;99.90
11474;DHT22;5793;52.238;13.438;2023-02-03T05:50:47;5.00;99.90
11474;DHT22;5793;52.238;13.438;2023-02-03T05:53:14;5.10;99.90
11474;DHT22;5793;52.238;13.438;2023-02-03T05:55:42;5.20;99.90
11474;DHT22;5793;52.238;13.438;2023-02-03T05:58:10;5.30;99.90
11474;DHT22;5793;52.238;13.438;2023-02-03T06:00:39;5.40;99.90
11474;DHT22;5793;52.238;13.438;2023-02-03T06:03:07;5.40;99.90
11474;DHT22;5793;52.238;13.438;2023-02-03T06:05:35;5.50;99.90
11474;DHT22;5793;52.238;13.438;2023-02-03T06:08:06;5.50;99.90
11474;DHT22;5793;52.238;13.438;2023-02-03T06:10:34;5.50;99.90
11474;DHT22;5793;52.238;13.438;2023-02-03T06:13:07;5.50;99.90
11474;DHT22;5793;52.238;13.438;2023-02-03T06:15:35;5.60;99.90
11474;DHT22;5793;52.238;13.438;2023-02-03T06:18:04;5.60;99.90
11474;DHT22;5793;52.238;13.438;2023-02-03T06:20:32;5.60;99.90
11474;DHT22;5793;52.238;13.438;2023-02-03T06:23:00;5.70;99.90
11474;DHT22;5793;52.238;13.438;2023-02-03T06:25:28;5.70;99.90
11474;DHT22;5793;52.238;13.438;2023-02-03T06:27:57;5.70;99.90
11474;DHT22;5793;52.238;13.438;2023-02-03T06:30:25;5.70;99.90
11474;DHT22;5793;52.238;13.438;2023-02-03T06:32:54;5.70;99.90
11474;DHT22;5793;52.238;13.438;2023-02-03T06:35:23;5.80;99.90
11474;DHT22;5793;52.238;13.438;2023-02-03T06:37:51;5.80;99.90
11474;DHT22;5793;52.238;13.438;2023-02-03T06:40:19;5.80;99.90
11474;DHT22;5793;52.238;13.438;2023-02-03T06:42:47;5.80;99.90
11474;DHT22;5793;52.238;13.438;2023-02-03T06:45:17;5.80;99.90
11474;DHT22;5793;52.238;13.438;2023-02-03T06:47:45;5.90;99.90
11474;DHT22;5793;52.238;13.438;2023-02-03T06:50:14;5.90;99.90
11474;DHT22;5793;52.238;13.438;2023-02-03T06:52:43;5.90;99.90
11474;DHT22;5793;52.238;13.438;2023-02-03T06:55:11;5.90;99.90
11474;DHT22;5793;52.238;13.438;2023-02-03T06:57:43;6.00;99.90
11474;DHT22;5793;52.238;13.438;2023-02-03T07:00:12;6.00;99.90
11474;DHT22;5793;52.238;13.438;2023-02-03T07:02:44;6.00;99.90
11474;DHT22;5793;52.238;13.438;2023-02-03T07:05:12;6.00;99.90
11474;DHT22;5793;52.238;13.438;2023-02-03T07:07:40;6.00;99.90
11474;DHT22;5793;52.238;13.438;2023-02-03T07:10:09;6.10;99.90
11474;DHT22;5793;52.238;13.438;2023-02-03T07:12:37;6.10;99.90
11474;DHT22;5793;52.238;13.438;2023-02-03T07:15:05;6.20;99.90
11474;DHT22;5793;52.238;13.438;2023-02-03T07:17:33;6.20;99.90
11474;DHT22;5793;52.238;13.438;2023-02-03T07:20:01;6.30;99.90
11474;DHT22;5793;52.238;13.438;2023-02-03T07:22:29;6.30;99.90
11474;DHT22;5793;52.238;13.438;2023-02-03T07:25:00;6.40;99.90
11474;DHT22;5793;52.238;13.438;2023-02-03T07:27:29;6.40;99.90
11474;DHT22;5793;52.238;13.438;2023-02-03T07:29:57;6.40;99.90
11474;DHT22;5793;52.238;13.438;2023-02-03T07:32:25;6.40;99.90
11474;DHT22;5793;52.238;13.438;2023-02-03T07:34:53;6.40;99.90
11474;DHT22;5793;52.238;13.438;2023-02-03T07:37:20;6.40;99.90
11474;DHT22;5793;52.238;13.438;2023-02-03T07:39:48;6.50;99.90
11474;DHT22;5793;52.238;13.438;2023-02-03T07:42:16;6.60;99.90
11474;DHT22;5793;52.238;13.438;2023-02-03T07:44:45;6.50;99.90
11474;DHT22;5793;52.238;13.438;2023-02-03T07:47:13;6.50;99.90
11474;DHT22;5793;52.238;13.438;2023-02-03T07:49:40;6.60;99.90
11474;DHT22;5793;52.238;13.438;2023-02-03T07:52:09;6.60;99.90
11474;DHT22;5793;52.238;13.438;2023-02-03T07:54:36;6.60;99.90
11474;DHT22;5793;52.238;13.438;2023-02-03T07:57:04;6.70;99.90
11474;DHT22;5793;52.238;13.438;2023-02-03T07:59:32;6.70;99.90
11474;DHT22;5793;52.238;13.438;2023-02-03T08:02:01;6.70;99.90
11474;DHT22;5793;52.238;13.438;2023-02-03T08:04:29;6.70;99.90
11474;DHT22;5793;52.238;13.438;2023-02-03T08:06:57;6.80;99.90
11474;DHT22;5793;52.238;13.438;2023-02-03T08:09:24;6.80;99.90
11474;DHT22;5793;52.238;13.438;2023-02-03T08:11:52;6.80;99.90
11474;DHT22;5793;52.238;13.438;2023-02-03T08:14:23;6.70;99.90
11474;DHT22;5793;52.238;13.438;2023-02-03T08:16:51;6.70;99.90
11474;DHT22;5793;52.238;13.438;2023-02-03T08:19:20;6.70;99.90
11474;DHT22;5793;52.238;13.438;2023-02-03T08:21:48;6.70;99.90
11474;DHT22;5793;52.238;13.438;2023-02-03T08:24:16;6.70;99.90
11474;DHT22;5793;52.238;13.438;2023-02-03T08:26:43;6.70;99.90
11474;DHT22;5793;52.238;13.438;2023-02-03T08:29:11;6.80;99.90
11474;DHT22;5793;52.238;13.438;2023-02-03T08:31:40;6.80;99.90
11474;DHT22;5793;52.238;13.438;2023-02-03T08:34:08;6.70;99.90
11474;DHT22;5793;52.238;13.438;2023-02-03T08:36:37;6.70;99.90
11474;DHT22;5793;52.238;13.438;2023-02-03T08:39:05;6.80;99.90
11474;DHT22;5793;52.238;13.438;2023-02-03T08:41:33;6.70;99.90
11474;DHT22;5793;52.238;13.438;2023-02-03T08:44:01;6.80;99.90
11474;DHT22;5793;52.238;13.438;2023-02-03T08:46:29;6.80;99.90
11474;DHT22;5793;52.238;13.438;2023-02-03T08:48:56;6.80;99.90
11474;DHT22;5793;52.238;13.438;2023-02-03T08:51:26;6.80;99.90
11474;DHT22;5793;52.238;13.438;2023-02-03T08:53:55;6.80;99.90
11474;DHT22;5793;52.238;13.438;2023-02-03T08:56:23;6.80;99.90
11474;DHT22;5793;52.238;13.438;2023-02-03T08:58:53;6.80;99.90
11474;DHT22;5793;52.238;13.438;2023-02-03T09:01:21;6.80;99.90
11474;DHT22;5793;52.238;13.438;2023-02-03T09:03:49;6.80;99.90
11474;DHT22;5793;52.238;13.438;2023-02-03T09:06:17;6.80;99.90
11474;DHT22;5793;52.238;13.438;2023-02-03T09:08:49;6.80;99.90
11474;DHT22;5793;52.238;13.438;2023-02-03T09:11:18;6.80;99.90
11474;DHT22;5793;52.238;13.438;2023-02-03T09:13:46;6.80;99.90
11474;DHT22;5793;52.238;13.438;2023-02-03T09:16:16;6.90;99.90
11474;DHT22;5793;52.238;13.438;2023-02-03T09:18:44;6.90;99.90
11474;DHT22;5793;52.238;13.438;2023-02-03T09:21:13;6.90;99.90
11474;DHT22;5793;52.238;13.438;2023-02-03T09:24:00;6.90;99.90
11474;DHT22;5793;52.238;13.438;2023-02-03T09:26:29;6.90;99.90
11474;DHT22;5793;52.238;13.438;2023-02-03T09:28:57;6.90;99.90
11474;DHT22;5793;52.238;13.438;2023-02-03T09:31:25;6.90;99.90
11474;DHT22;5793;52.238;13.438;2023-02-03T09:33:53;7.00;99.90
11474;DHT22;5793;52.238;13.438;2023-02-03T09:36:21;7.00;99.90
11474;DHT22;5793;52.238;13.438;2023-02-03T09:38:48;7.00;99.90
11474;DHT22;5793;52.238;13.438;2023-02-03T09:41:46;7.00;99.90
11474;DHT22;5793;52.238;13.438;2023-02-03T09:44:23;7.00;99.90
11474;DHT22;5793;52.238;13.438;2023-02-03T09:46:57;7.00;99.90
11474;DHT22;5793;52.238;13.438;2023-02-03T09:49:31;7.10;99.90
11474;DHT22;5793;52.238;13.438;2023-02-03T09:52:04;7.10;99.90
11474;DHT22;5793;52.238;13.438;2023-02-03T09:54:38;7.10;99.90
11474;DHT22;5793;52.238;13.438;2023-02-03T09:57:13;7.10;99.90
11474;DHT22;5793;52.238;13.438;2023-02-03T09:59:43;7.10;99.90
11474;DHT22;5793;52.238;13.438;2023-02-03T10:05:13;7.20;99.90
11474;DHT22;5793;52.238;13.438;2023-02-03T10:07:48;7.20;99.90
11474;DHT22;5793;52.238;13.438;2023-02-03T10:10:23;7.30;99.90
11474;DHT22;5793;52.238;13.438;2023-02-03T10:13:11;7.30;99.90
11474;DHT22;5793;52.238;13.438;2023-02-03T10:15:50;7.30;99.90
11474;DHT22;5793;52.238;13.438;2023-02-03T10:18:21;7.30;99.90
11474;DHT22;5793;52.238;13.438;2023-02-03T10:20:51;7.40;99.90
11474;DHT22;5793;52.238;13.438;2023-02-03T10:23:25;7.40;99.90
11474;DHT22;5793;52.238;13.438;2023-02-03T10:25:56;7.40;99.90
11474;DHT22;5793;52.238;13.438;2023-02-03T10:28:29;7.50;99.90
11474;DHT22;5793;52.238;13.438;2023-02-03T10:30:59;7.50;99.90
11474;DHT22;5793;52.238;13.438;2023-02-03T10:33:28;7.60;99.90
11474;DHT22;5793;52.238;13.438;2023-02-03T10:36:13;7.60;99.90
11474;DHT22;5793;52.238;13.438;2023-02-03T10:38:52;7.60;99.90
11474;DHT22;5793;52.238;13.438;2023-02-03T10:41:22;7.70;99.90
11474;DHT22;5793;52.238;13.438;2023-02-03T10:43:52;7.70;99.90
11474;DHT22;5793;52.238;13.438;2023-02-03T10:46:27;7.70;99.90
11474;DHT22;5793;52.238;13.438;2023-02-03T10:48:55;7.80;99.90
11474;DHT22;5793;52.238;13.438;2023-02-03T10:51:24;7.80;99.90
11474;DHT22;5793;52.238;13.438;2023-02-03T10:53:52;7.80;99.90
11474;DHT22;5793;52.238;13.438;2023-02-03T10:56:35;7.80;99.90
11474;DHT22;5793;52.238;13.438;2023-02-03T10:59:05;7.80;99.90
11474;DHT22;5793;52.238;13.438;2023-02-03T11:01:40;7.90;99.90
11474;DHT22;5793;52.238;13.438;2023-02-03T11:04:22;7.90;99.90
11474;DHT22;5793;52.238;13.438;2023-02-03T11:06:54;7.90;99.90
11474;DHT22;5793;52.238;13.438;2023-02-03T11:09:29;7.90;99.90
11474;DHT22;5793;52.238;13.438;2023-02-03T11:12:11;8.00;99.90
11474;DHT22;5793;52.238;13.438;2023-02-03T11:14:42;8.00;99.90
11474;DHT22;5793;52.238;13.438;2023-02-03T11:17:16;7.90;99.90
11474;DHT22;5793;52.238;13.438;2023-02-03T11:19:45;7.70;99.90
11474;DHT22;5793;52.238;13.438;2023-02-03T11:22:26;7.50;99.90
11474;DHT22;5793;52.238;13.438;2023-02-03T11:24:54;7.20;99.90
11474;DHT22;5793;52.238;13.438;2023-02-03T11:27:23;7.20;99.90
11474;DHT22;5793;52.238;13.438;2023-02-03T11:30:09;7.30;99.90
11474;DHT22;5793;52.238;13.438;2023-02-03T11:36:34;8.10;99.90
11474;DHT22;5793;52.238;13.438;2023-02-03T11:39:19;8.10;99.90
11474;DHT22;5793;52.238;13.438;2023-02-03T11:41:47;8.10;99.90
11474;DHT22;5793;52.238;13.438;2023-02-03T11:44:21;8.10;99.90
11474;DHT22;5793;52.238;13.438;2023-02-03T11:46:54;8.10;99.90
11474;DHT22;5793;52.238;13.438;2023-02-03T11:52:49;8.20;99.90
11474;DHT22;5793;52.238;13.438;2023-02-03T11:55:29;8.20;99.90
11474;DHT22;5793;52.238;13.438;2023-02-03T11:58:13;8.20;99.90
11474;DHT22;5793;52.238;13.438;2023-02-03T12:00:49;8.20;99.90
11474;DHT22;5793;52.238;13.438;2023-02-03T12:06:45;8.20;99.90
11474;DHT22;5793;52.238;13.438;2023-02-03T12:09:23;8.60;99.90
11474;DHT22;5793;52.238;13.438;2023-02-03T12:12:15;8.70;99.90
11474;DHT22;5793;52.238;13.438;2023-02-03T12:14:54;8.90;99.90
11474;DHT22;5793;52.238;13.438;2023-02-03T12:17:44;8.90;99.90
11474;DHT22;5793;52.238;13.438;2023-02-03T12:20:30;8.80;99.90
11474;DHT22;5793;52.238;13.438;2023-02-03T12:23:12;8.80;99.90
11474;DHT22;5793;52.238;13.438;2023-02-03T12:25:57;8.90;99.90
11474;DHT22;5793;52.238;13.438;2023-02-03T12:28:40;9.10;99.90
11474;DHT22;5793;52.238;13.438;2023-02-03T12:31:14;9.10;99.90
11474;DHT22;5793;52.238;13.438;2023-02-03T12:33:47;8.90;99.90
11474;DHT22;5793;52.238;13.438;2023-02-03T12:36:21;9.00;99.90
11474;DHT22;5793;52.238;13.438;2023-02-03T12:38:55;8.90;99.90
11474;DHT22;5793;52.238;13.438;2023-02-03T12:41:26;8.90;99.90
11474;DHT22;5793;52.238;13.438;2023-02-03T12:43:58;8.90;99.90
11474;DHT22;5793;52.238;13.438;2023-02-03T12:46:30;8.90;99.90
11474;DHT22;5793;52.238;13.438;2023-02-03T12:49:02;8.90;99.90
11474;DHT22;5793;52.238;13.438;2023-02-03T12:51:38;9.00;99.90
11474;DHT22;5793;52.238;13.438;2023-02-03T12:54:15;9.10;99.90
11474;DHT22;5793;52.238;13.438;2023-02-03T12:56:46;9.10;99.90
11474;DHT22;5793;52.238;13.438;2023-02-03T12:59:20;9.10;99.90
11474;DHT22;5793;52.238;13.438;2023-02-03T13:01:52;9.20;99.90
11474;DHT22;5793;52.238;13.438;2023-02-03T13:04:27;9.40;99.90
11474;DHT22;5793;52.238;13.438;2023-02-03T13:07:07;9.50;99.90
11474;DHT22;5793;52.238;13.438;2023-02-03T13:09:46;9.40;99.90
11474;DHT22;5793;52.238;13.438;2023-02-03T13:12:22;9.50;99.90
11474;DHT22;5793;52.238;13.438;2023-02-03T13:14:53;9.60;99.90
11474;DHT22;5793;52.238;13.438;2023-02-03T13:17:25;9.90;99.90
11474;DHT22;5793;52.238;13.438;2023-02-03T13:19:58;9.90;99.90
11474;DHT22;5793;52.238;13.438;2023-02-03T13:22:28;9.70;99.90
11474;DHT22;5793;52.238;13.438;2023-02-03T13:25:00;9.60;99.90
11474;DHT22;5793;52.238;13.438;2023-02-03T13:27:38;9.10;99.90
11474;DHT22;5793;52.238;13.438;2023-02-03T13:30:29;8.10;99.90
11474;DHT22;5793;52.238;13.438;2023-02-03T13:33:30;6.90;99.90
11474;DHT22;5793;52.238;13.438;2023-02-03T13:36:12;6.10;99.90
11474;DHT22;5793;52.238;13.438;2023-02-03T13:38:55;5.70;99.90
11474;DHT22;5793;52.238;13.438;2023-02-03T13:41:35;5.70;99.90
11474;DHT22;5793;52.238;13.438;2023-02-03T13:44:04;5.60;99.90
11474;DHT22;5793;52.238;13.438;2023-02-03T13:46:38;5.60;99.90
11474;DHT22;5793;52.238;13.438;2023-02-03T13:49:08;5.60;99.90
11474;DHT22;5793;52.238;13.438;2023-02-03T13:51:43;5.60;99.90
11474;DHT22;5793;52.238;13.438;2023-02-03T13:54:16;5.50;99.90
11474;DHT22;5793;52.238;13.438;2023-02-03T13:56:53;5.60;99.90
11474;DHT22;5793;52.238;13.438;2023-02-03T13:59:37;5.60;99.90
11474;DHT22;5793;52.238;13.438;2023-02-03T14:02:28;5.50;99.90
11474;DHT22;5793;52.238;13.438;2023-02-03T14:04:58;5.50;99.90
11474;DHT22;5793;52.238;13.438;2023-02-03T14:07:30;5.50;99.90
11474;DHT22;5793;52.238;13.438;2023-02-03T14:10:21;5.50;99.90
11474;DHT22;5793;52.238;13.438;2023-02-03T14:12:57;5.60;99.90
11474;DHT22;5793;52.238;13.438;2023-02-03T14:15:30;5.60;99.90
11474;DHT22;5793;52.238;13.438;2023-02-03T14:18:04;5.60;99.90
11474;DHT22;5793;52.238;13.438;2023-02-03T14:21:11;5.60;99.90
11474;DHT22;5793;52.238;13.438;2023-02-03T14:23:43;5.60;99.90
11474;DHT22;5793;52.238;13.438;2023-02-03T14:26:37;5.70;99.90
11474;DHT22;5793;52.238;13.438;2023-02-03T14:29:08;5.70;99.90
11474;DHT22;5793;52.238;13.438;2023-02-03T14:31:57;5.70;99.90
11474;DHT22;5793;52.238;13.438;2023-02-03T14:34:33;5.70;99.90
11474;DHT22;5793;52.238;13.438;2023-02-03T14:37:17;5.70;99.90
11474;DHT22;5793;52.238;13.438;2023-02-03T14:43:22;5.90;99.90
11474;DHT22;5793;52.238;13.438;2023-02-03T14:46:20;6.10;99.90
11474;DHT22;5793;52.238;13.438;2023-02-03T14:49:06;6.30;99.90
11474;DHT22;5793;52.238;13.438;2023-02-03T15:06:38;7.10;99.90
11474;DHT22;5793;52.238;13.438;2023-02-03T15:09:23;7.10;99.90
11474;DHT22;5793;52.238;13.438;2023-02-03T15:11:52;7.10;99.90
11474;DHT22;5793;52.238;13.438;2023-02-03T15:14:23;7.10;99.90
11474;DHT22;5793;52.238;13.438;2023-02-03T15:17:01;7.10;99.90
11474;DHT22;5793;52.238;13.438;2023-02-03T15:19:33;7.10;99.90
11474;DHT22;5793;52.238;13.438;2023-02-03T15:22:17;6.90;99.90
11474;DHT22;5793;52.238;13.438;2023-02-03T15:24:45;7.00;99.90
11474;DHT22;5793;52.238;13.438;2023-02-03T15:27:21;7.10;99.90
11474;DHT22;5793;52.238;13.438;2023-02-03T15:29:52;7.10;99.90
11474;DHT22;5793;52.238;13.438;2023-02-03T15:32:26;7.10;99.90
11474;DHT22;5793;52.238;13.438;2023-02-03T15:35:02;7.10;99.90
11474;DHT22;5793;52.238;13.438;2023-02-03T15:37:38;7.10;99.90
11474;DHT22;5793;52.238;13.438;2023-02-03T15:40:13;7.10;99.90
11474;DHT22;5793;52.238;13.438;2023-02-03T15:42:55;7.10;99.90
11474;DHT22;5793;52.238;13.438;2023-02-03T15:45:30;7.10;99.90
11474;DHT22;5793;52.238;13.438;2023-02-03T15:48:37;7.30;99.90
11474;DHT22;5793;52.238;13.438;2023-02-03T15:51:10;7.20;99.90
11474;DHT22;5793;52.238;13.438;2023-02-03T15:53:47;7.20;99.90
11474;DHT22;5793;52.238;13.438;2023-02-03T15:56:22;7.20;99.90
11474;DHT22;5793;52.238;13.438;2023-02-03T15:58:52;7.20;99.90
11474;DHT22;5793;52.238;13.438;2023-02-03T16:01:21;7.20;99.90
11474;DHT22;5793;52.238;13.438;2023-02-03T16:03:53;7.20;99.90
11474;DHT22;5793;52.238;13.438;2023-02-03T16:06:25;7.20;99.90
11474;DHT22;5793;52.238;13.438;2023-02-03T16:08:57;7.30;99.90
11474;DHT22;5793;52.238;13.438;2023-02-03T16:11:29;7.20;99.90
11474;DHT22;5793;52.238;13.438;2023-02-03T16:13:59;7.30;99.90
11474;DHT22;5793;52.238;13.438;2023-02-03T16:16:36;7.30;99.90
11474;DHT22;5793;52.238;13.438;2023-02-03T16:19:12;7.20;99.90
11474;DHT22;5793;52.238;13.438;2023-02-03T16:21:51;7.20;99.90
11474;DHT22;5793;52.238;13.438;2023-02-03T16:24:36;7.20;99.90
11474;DHT22;5793;52.238;13.438;2023-02-03T16:27:35;7.20;99.90
11474;DHT22;5793;52.238;13.438;2023-02-03T16:30:22;7.10;99.90
11474;DHT22;5793;52.238;13.438;2023-02-03T16:33:15;7.10;99.90
11474;DHT22;5793;52.238;13.438;2023-02-03T16:36:08;7.10;99.90
11474;DHT22;5793;52.238;13.438;2023-02-03T16:38:54;7.10;99.90
11474;DHT22;5793;52.238;13.438;2023-02-03T16:41:41;7.00;99.90
11474;DHT22;5793;52.238;13.438;2023-02-03T16:44:26;6.90;99.90
11474;DHT22;5793;52.238;13.438;2023-02-03T16:47:20;7.10;99.90
11474;DHT22;5793;52.238;13.438;2023-02-03T16:50:11;7.00;99.90
11474;DHT22;5793;52.238;13.438;2023-02-03T16:53:05;7.00;99.90
11474;DHT22;5793;52.238;13.438;2023-02-03T16:55:36;6.80;99.90